Himawari 2 — JG5636 — position and weather

sailwx.info

Track history (hours):
 
Tides and Currents Weather Stations Pressure Air Temp Water Temp Dewpoint Dewpoint Depression Visibility Wind Speed Wind Dir Waves Ship Positions

Himawari 2

Last reported at 2015-May-26 23:23 UTC. Time now 2015-May-28 18:08 UTC.
Position N 36°43' E 141°02'.

Length 161 m; draft 6.5 m.

Type: Cargo ship. MMSI: 431100957.

Date/timePositionNaut miles runAvg speedWind from/ knotsBaromVisibWave heightAir tempDewpointWater temp
2015-May-26 23:23N 36°43' E 141°02'1618.8
2015-May-26 22:33N 36°27' E 141°01'1918.8
2015-May-26 21:33N 36°09' E 141°00'1918.5
2015-May-26 20:33N 35°50' E 140°59'1818.2
2015-May-26 19:33N 35°33' E 140°52'2120.9
2015-May-26 18:33N 35°16' E 140°36'2019.7
2015-May-26 17:33N 35°02' E 140°20'1918.6
2015-May-26 16:31N 34°54' E 139°59'1414.2
2015-May-26 15:33N 34°58' E 139°43'1716.8
2015-May-26 14:33N 35°15' E 139°46'1312.9
2015-May-26 13:33N 35°28' E 139°48'9 8.3
2015-May-26 12:32N 35°36' E 139°48'0 0.0
2015-May-26 11:32N 35°36' E 139°48'0 0.0
2015-May-26 10:32N 35°36' E 139°48'0 0.0
2015-May-26 09:32N 35°36' E 139°48'0 0.0
2015-May-26 08:32N 35°36' E 139°48'0 0.0
2015-May-26 07:32N 35°36' E 139°48'0 0.0
2015-May-26 06:32N 35°36' E 139°48'0 0.0
2015-May-26 05:32N 35°36' E 139°48'0 0.0
2015-May-26 04:32N 35°36' E 139°48'0 0.0
2015-May-26 03:29N 35°36' E 139°48'0 0.0
2015-May-26 02:32N 35°36' E 139°48'0 0.0
2015-May-26 01:32N 35°36' E 139°48'8 8.6
2015-May-26 00:33N 35°28' E 139°51'1312.7
2015-May-25 23:34N 35°16' E 139°46'1312.8
2015-May-25 22:33N 35°04' E 139°45'1918.8
2015-May-25 21:31N 34°52' E 139°26'22818.3
2015-May-25 09:05N 33°52' E 134°59'1121.3
2015-May-25 08:33N 34°04' E 134°58'2121.0
2015-May-25 07:33N 34°24' E 135°03'2020.4
2015-May-25 06:33N 34°37' E 135°22'3 2.8
2015-May-25 05:30N 34°40' E 135°24'0 0.0
2015-May-25 04:24N 34°40' E 135°24'0 0.0
2015-May-25 03:30N 34°40' E 135°24'0 0.0
2015-May-25 02:30N 34°40' E 135°24'0 0.0
2015-May-25 01:24N 34°40' E 135°24'0 0.0
2015-May-25 00:18N 34°40' E 135°24'0 0.0
2015-May-24 23:30N 34°40' E 135°24'0 0.0
2015-May-24 22:30N 34°40' E 135°24'0 0.0
2015-May-24 21:18N 34°40' E 135°24'0 0.0
2015-May-24 20:30N 34°40' E 135°24'0 0.0
2015-May-24 19:30N 34°40' E 135°24'0 0.0
2015-May-24 18:30N 34°40' E 135°24'0 0.0
2015-May-24 17:30N 34°40' E 135°24'0 0.0
2015-May-24 16:30N 34°40' E 135°24'0 0.0
2015-May-24 15:30N 34°40' E 135°24'0 0.0
2015-May-24 14:30N 34°40' E 135°24'0 0.0
2015-May-24 13:24N 34°40' E 135°24'0 0.0
2015-May-24 12:30N 34°40' E 135°24'0 0.0
2015-May-24 11:30N 34°40' E 135°24'0 0.0
2015-May-24 09:30N 34°40' E 135°24'0 0.0
2015-May-24 08:30N 34°40' E 135°24'0 0.0
2015-May-24 07:24N 34°40' E 135°24'0 0.0
2015-May-24 06:30N 34°40' E 135°24'0 0.0
2015-May-24 05:30N 34°40' E 135°24'0 0.1
2015-May-24 04:33N 34°40' E 135°24'1111.2
2015-May-24 03:34N 34°32' E 135°14'1918.9
2015-May-24 02:33N 34°17' E 134°59'20418.4
2015-May-23 15:27N 34°36' E 139°06'2123.0
2015-May-23 14:34N 34°51' E 139°22'2222.1
2015-May-23 13:33N 35°06' E 139°42'1312.9
2015-May-23 12:33N 35°19' E 139°43'1515.4
2015-May-23 11:34N 35°34' E 139°49'3 2.5
2015-May-23 10:29N 35°36' E 139°48'0 0.0
2015-May-23 09:29N 35°36' E 139°48'0 0.0
2015-May-23 08:29N 35°36' E 139°48'0 0.0
2015-May-23 07:32N 35°36' E 139°48'0 0.0
2015-May-23 06:29N 35°36' E 139°48'0 0.0
2015-May-23 05:29N 35°36' E 139°48'0 0.0
2015-May-23 04:29N 35°36' E 139°48'0 0.0
2015-May-23 03:29N 35°36' E 139°48'0 0.0
2015-May-23 02:32N 35°36' E 139°48'4 3.8
2015-May-23 01:33N 35°33' E 139°50'1414.4
2015-May-23 00:33N 35°20' E 139°44'1515.0
2015-May-22 23:34N 35°05' E 139°47'1514.5
2015-May-22 22:29N 34°54' E 140°00'2322.8
2015-May-22 21:30N 35°06' E 140°24'2021.6
2015-May-22 20:33N 35°22' E 140°40'2522.2
2015-May-22 19:25N 35°42' E 140°57'2023.3
2015-May-22 18:34N 36°03' E 140°59'3223.2
2015-May-22 17:11N 36°34' E 141°02'  
2015-May-19 23:11N 36°58' E 141°09'3417.7
2015-May-19 21:15N 36°24' E 141°06'7618.4
2015-May-19 17:08N 35°12' E 140°36'1919.4
2015-May-19 16:09N 34°59' E 140°19'1119.1
2015-May-19 15:33N 34°54' E 140°06'1716.8
2015-May-19 14:33N 34°54' E 139°46'1717.1
2015-May-19 13:33N 35°10' E 139°46'1413.6
2015-May-19 12:33N 35°24' E 139°43'1312.9
2015-May-19 11:33N 35°36' E 139°48'0 0.3
2015-May-19 10:31N 35°36' E 139°48'0 0.0
2015-May-19 09:33N 35°36' E 139°48'0 0.0
2015-May-19 08:25N 35°36' E 139°48'0 0.0
2015-May-19 07:31N 35°36' E 139°48'0 0.0
2015-May-19 06:34N 35°36' E 139°48'0 0.0
2015-May-19 05:31N 35°36' E 139°48'0 0.0
2015-May-19 04:31N 35°36' E 139°48'0 0.0
2015-May-19 03:34N 35°36' E 139°48'0 0.0
2015-May-19 02:31N 35°36' E 139°48'0 0.4
2015-May-19 01:33N 35°36' E 139°48'1010.4
2015-May-19 00:33N 35°26' E 139°48'1111.2
2015-May-18 23:33N 35°15' E 139°47'1413.8
2015-May-18 22:33N 35°02' E 139°42'24118.5
2015-May-18 09:33N 34°02' E 134°58'2221.4
2015-May-18 08:33N 34°24' E 135°02'2121.1
2015-May-18 07:34N 34°37' E 135°21'3 3.4
2015-May-18 06:33N 34°40' E 135°24'0 0.0
2015-May-18 05:33N 34°40' E 135°24'0 0.0
2015-May-18 04:27N 34°40' E 135°24'0 0.0
2015-May-18 03:27N 34°40' E 135°24'0 0.0
2015-May-18 02:33N 34°40' E 135°24'0 0.0
2015-May-18 01:33N 34°40' E 135°24'0 0.0
2015-May-18 00:33N 34°40' E 135°24'0 0.0
2015-May-17 23:27N 34°40' E 135°24'0 0.0
2015-May-17 22:27N 34°40' E 135°24'0 0.0
2015-May-17 21:21N 34°40' E 135°24'0 0.0
2015-May-17 20:33N 34°40' E 135°24'0 0.0
2015-May-17 19:27N 34°40' E 135°24'0 0.0
2015-May-17 18:33N 34°40' E 135°24'0 0.0
2015-May-17 17:33N 34°40' E 135°24'0 0.0
2015-May-17 16:27N 34°40' E 135°24'0 0.0
2015-May-17 15:27N 34°40' E 135°24'0 0.0
2015-May-17 14:33N 34°40' E 135°24'0 0.0
2015-May-17 13:33N 34°40' E 135°24'0 0.0
2015-May-17 12:33N 34°40' E 135°24'0 0.0
2015-May-17 11:15N 34°40' E 135°24'0 0.0
2015-May-17 10:27N 34°40' E 135°24'0 0.0
2015-May-17 09:27N 34°40' E 135°24'0 0.0
2015-May-17 08:21N 34°40' E 135°24'0 0.0
2015-May-17 07:27N 34°40' E 135°24'0 0.0
2015-May-17 06:33N 34°40' E 135°24'0 0.0
2015-May-17 05:33N 34°40' E 135°24'1 0.8
2015-May-17 04:33N 34°39' E 135°24'1717.0
2015-May-17 03:33N 34°27' E 135°09'1616.4
2015-May-17 02:34N 34°13' E 134°60'2018.2
2015-May-17 01:28N 33°53' E 135°01'  
Track history (hours):
 
Tides and Currents Weather Stations Pressure Air Temp Water Temp Dewpoint Dewpoint Depression Visibility Wind Speed Wind Dir Waves Ship Positions

Himawari 2

Last reported at 2015-May-26 23:23 UTC. Time now 2015-May-28 18:08 UTC.
Position N 36°43' E 141°02'.

Length 161 m; draft 6.5 m.

Type: Cargo ship. MMSI: 431100957.

Date/timePositionNaut miles runAvg speedWind from/ knotsBaromVisibWave heightAir tempDewpointWater temp
2015-May-26 23:23N 36°43' E 141°02'1618.8
2015-May-26 22:33N 36°27' E 141°01'1918.8
2015-May-26 21:33N 36°09' E 141°00'1918.5
2015-May-26 20:33N 35°50' E 140°59'1818.2
2015-May-26 19:33N 35°33' E 140°52'2120.9
2015-May-26 18:33N 35°16' E 140°36'2019.7
2015-May-26 17:33N 35°02' E 140°20'1918.6
2015-May-26 16:31N 34°54' E 139°59'1414.2
2015-May-26 15:33N 34°58' E 139°43'1716.8
2015-May-26 14:33N 35°15' E 139°46'1312.9
2015-May-26 13:33N 35°28' E 139°48'9 8.3
2015-May-26 12:32N 35°36' E 139°48'0 0.0
2015-May-26 11:32N 35°36' E 139°48'0 0.0
2015-May-26 10:32N 35°36' E 139°48'0 0.0
2015-May-26 09:32N 35°36' E 139°48'0 0.0
2015-May-26 08:32N 35°36' E 139°48'0 0.0
2015-May-26 07:32N 35°36' E 139°48'0 0.0
2015-May-26 06:32N 35°36' E 139°48'0 0.0
2015-May-26 05:32N 35°36' E 139°48'0 0.0
2015-May-26 04:32N 35°36' E 139°48'0 0.0
2015-May-26 03:29N 35°36' E 139°48'0 0.0
2015-May-26 02:32N 35°36' E 139°48'0 0.0
2015-May-26 01:32N 35°36' E 139°48'8 8.6
2015-May-26 00:33N 35°28' E 139°51'1312.7
2015-May-25 23:34N 35°16' E 139°46'1312.8
2015-May-25 22:33N 35°04' E 139°45'1918.8
2015-May-25 21:31N 34°52' E 139°26'22818.3
2015-May-25 09:05N 33°52' E 134°59'1121.3
2015-May-25 08:33N 34°04' E 134°58'2121.0
2015-May-25 07:33N 34°24' E 135°03'2020.4
2015-May-25 06:33N 34°37' E 135°22'3 2.8
2015-May-25 05:30N 34°40' E 135°24'0 0.0
2015-May-25 04:24N 34°40' E 135°24'0 0.0
2015-May-25 03:30N 34°40' E 135°24'0 0.0
2015-May-25 02:30N 34°40' E 135°24'0 0.0
2015-May-25 01:24N 34°40' E 135°24'0 0.0
2015-May-25 00:18N 34°40' E 135°24'0 0.0
2015-May-24 23:30N 34°40' E 135°24'0 0.0
2015-May-24 22:30N 34°40' E 135°24'0 0.0
2015-May-24 21:18N 34°40' E 135°24'0 0.0
2015-May-24 20:30N 34°40' E 135°24'0 0.0
2015-May-24 19:30N 34°40' E 135°24'0 0.0
2015-May-24 18:30N 34°40' E 135°24'0 0.0
2015-May-24 17:30N 34°40' E 135°24'0 0.0
2015-May-24 16:30N 34°40' E 135°24'0 0.0
2015-May-24 15:30N 34°40' E 135°24'0 0.0
2015-May-24 14:30N 34°40' E 135°24'0 0.0
2015-May-24 13:24N 34°40' E 135°24'0 0.0
2015-May-24 12:30N 34°40' E 135°24'0 0.0
2015-May-24 11:30N 34°40' E 135°24'0 0.0
2015-May-24 09:30N 34°40' E 135°24'0 0.0
2015-May-24 08:30N 34°40' E 135°24'0 0.0
2015-May-24 07:24N 34°40' E 135°24'0 0.0
2015-May-24 06:30N 34°40' E 135°24'0 0.0
2015-May-24 05:30N 34°40' E 135°24'0 0.1
2015-May-24 04:33N 34°40' E 135°24'1111.2
2015-May-24 03:34N 34°32' E 135°14'1918.9
2015-May-24 02:33N 34°17' E 134°59'20418.4
2015-May-23 15:27N 34°36' E 139°06'2123.0
2015-May-23 14:34N 34°51' E 139°22'2222.1
2015-May-23 13:33N 35°06' E 139°42'1312.9
2015-May-23 12:33N 35°19' E 139°43'1515.4
2015-May-23 11:34N 35°34' E 139°49'3 2.5
2015-May-23 10:29N 35°36' E 139°48'0 0.0
2015-May-23 09:29N 35°36' E 139°48'0 0.0
2015-May-23 08:29N 35°36' E 139°48'0 0.0
2015-May-23 07:32N 35°36' E 139°48'0 0.0
2015-May-23 06:29N 35°36' E 139°48'0 0.0
2015-May-23 05:29N 35°36' E 139°48'0 0.0
2015-May-23 04:29N 35°36' E 139°48'0 0.0
2015-May-23 03:29N 35°36' E 139°48'0 0.0
2015-May-23 02:32N 35°36' E 139°48'4 3.8
2015-May-23 01:33N 35°33' E 139°50'1414.4
2015-May-23 00:33N 35°20' E 139°44'1515.0
2015-May-22 23:34N 35°05' E 139°47'1514.5
2015-May-22 22:29N 34°54' E 140°00'2322.8
2015-May-22 21:30N 35°06' E 140°24'2021.6
2015-May-22 20:33N 35°22' E 140°40'2522.2
2015-May-22 19:25N 35°42' E 140°57'2023.3
2015-May-22 18:34N 36°03' E 140°59'3223.2
2015-May-22 17:11N 36°34' E 141°02'  
2015-May-19 23:11N 36°58' E 141°09'3417.7
2015-May-19 21:15N 36°24' E 141°06'7618.4
2015-May-19 17:08N 35°12' E 140°36'1919.4
2015-May-19 16:09N 34°59' E 140°19'1119.1
2015-May-19 15:33N 34°54' E 140°06'1716.8
2015-May-19 14:33N 34°54' E 139°46'1717.1
2015-May-19 13:33N 35°10' E 139°46'1413.6
2015-May-19 12:33N 35°24' E 139°43'1312.9
2015-May-19 11:33N 35°36' E 139°48'0 0.3
2015-May-19 10:31N 35°36' E 139°48'0 0.0
2015-May-19 09:33N 35°36' E 139°48'0 0.0
2015-May-19 08:25N 35°36' E 139°48'0 0.0
2015-May-19 07:31N 35°36' E 139°48'0 0.0
2015-May-19 06:34N 35°36' E 139°48'0 0.0
2015-May-19 05:31N 35°36' E 139°48'0 0.0
2015-May-19 04:31N 35°36' E 139°48'0 0.0
2015-May-19 03:34N 35°36' E 139°48'0 0.0
2015-May-19 02:31N 35°36' E 139°48'0 0.4
2015-May-19 01:33N 35°36' E 139°48'1010.4
2015-May-19 00:33N 35°26' E 139°48'1111.2
2015-May-18 23:33N 35°15' E 139°47'1413.8
2015-May-18 22:33N 35°02' E 139°42'24118.5
2015-May-18 09:33N 34°02' E 134°58'2221.4
2015-May-18 08:33N 34°24' E 135°02'2121.1
2015-May-18 07:34N 34°37' E 135°21'3 3.4
2015-May-18 06:33N 34°40' E 135°24'0 0.0
2015-May-18 05:33N 34°40' E 135°24'0 0.0
2015-May-18 04:27N 34°40' E 135°24'0 0.0
2015-May-18 03:27N 34°40' E 135°24'0 0.0
2015-May-18 02:33N 34°40' E 135°24'0 0.0
2015-May-18 01:33N 34°40' E 135°24'0 0.0
2015-May-18 00:33N 34°40' E 135°24'0 0.0
2015-May-17 23:27N 34°40' E 135°24'0 0.0
2015-May-17 22:27N 34°40' E 135°24'0 0.0
2015-May-17 21:21N 34°40' E 135°24'0 0.0
2015-May-17 20:33N 34°40' E 135°24'0 0.0
2015-May-17 19:27N 34°40' E 135°24'0 0.0
2015-May-17 18:33N 34°40' E 135°24'0 0.0
2015-May-17 17:33N 34°40' E 135°24'0 0.0
2015-May-17 16:27N 34°40' E 135°24'0 0.0
2015-May-17 15:27N 34°40' E 135°24'0 0.0
2015-May-17 14:33N 34°40' E 135°24'0 0.0
2015-May-17 13:33N 34°40' E 135°24'0 0.0
2015-May-17 12:33N 34°40' E 135°24'0 0.0
2015-May-17 11:15N 34°40' E 135°24'0 0.0
2015-May-17 10:27N 34°40' E 135°24'0 0.0
2015-May-17 09:27N 34°40' E 135°24'0 0.0
2015-May-17 08:21N 34°40' E 135°24'0 0.0
2015-May-17 07:27N 34°40' E 135°24'0 0.0
2015-May-17 06:33N 34°40' E 135°24'0 0.0
2015-May-17 05:33N 34°40' E 135°24'1 0.8
2015-May-17 04:33N 34°39' E 135°24'1717.0
2015-May-17 03:33N 34°27' E 135°09'1616.4
2015-May-17 02:34N 34°13' E 134°60'2018.2
2015-May-17 01:28N 33°53' E 135°01'  

Dump ship's entire track history